OIMC  Sarakhs  Airport

Sarakhs, Iran

Add Bookmark
ICAO OIMC
IATA CKT
Type Airport
Status Operational
Latitude
36° 30' 4" N
36.501202
Longitude
61° 3' 53" E
61.064899
Local (DST + 5) UTC (GMT + 4)
Aug 30, 2015 10:19 Aug 30, 2015 05:49
Sunrise-Sunset Local UTC
Begin Civil Twilight 05:27 00:57
Sunrise 05:54 01:24
Sunset 06:58 14:28
End Civil Twilight 07:25 14:55
VFR
VFR
MVFR
MVFR
IFR
IFR
LIFR
LIFR
Unknown
Unavailable

Current Weather

METAR Observed VFR
OIMC 300500Z 28006KT CAVOK 26/02 Q1019 Sun, Aug 30, 2015 @ 05:00 UTC
(49 Minutes ago)
Visual Flight Rules
Wind Visibility Conditions
280° at 6 knots (11 kph) 10 km or more
  • No significant weather
Temperatures Readings Precipitation
Current Temp
26°C
79°F
Dewpoint
2°C
36°F
Humidity 21%
Altimeter 30.09" Hg
Sea Level Pressure 1,019 mb
Field Elevation
288 m
945 ft
None Recorded
-
-

CheckWX.com is intended as a tool to help pilots better visualize weather data. It is not intended as a substitute for an official weather briefing obtained from a Flight Service Station. CheckWX.com does not meet the FAA requirements for an official pre-flight weather briefing. Therefore, it's important that pilots still call and obtain an official FSS pre-flight weather briefing.

© 2007-2015 CheckWX.com
05:49:32 UTC